Decoded Metar for LYTV (TIVAT in SERBIA) (IATA:TIV) | Meteo·Mobile Aviation Weather
aviador You're here:

LYTV Decoded Metar

TIVAT in SERBIA
Report Time2019-03-20 00:30:00
UTC Time2019-03-20 00:47:31
Flight Rules vfr VFR
Wind160° at 02 kt
W.Decomp.*RWY 14: 1.9 kt HW 0.6 kt RCW
W.Rank160° ranks 1
Current wind is below 160° avg. (7.4)
Visibility9999 m
Phenomena:N/A
Clouds:N/A
Expected CloudBase > 400 ft AGL from Temp-Dew spread
CeilingNone
Temp07°C (ISA -8)
Dew Point06°C (93% RH)
AAT5.4°C
QNH1020 hPa
Density Alt-1,053 ft
Elevation16 ft
Report Wrong Elevation
Raw Report
LYTV 200030Z 16002KT CAVOK 07/06 Q1020=

Extra information for LYTV:More info

Metar Taf Metar & Taf Last 4 Metars F.Rules Stats Wind Profile Meteogram Temp Stats Airport Information Weather charts Add Link Nearby VenuesMetar ALERT Operation Metar Decoded Social comments